sensor_id;sensor_type;location;lat;lon;timestamp;P1;durP1;ratioP1;P2;durP2;ratioP2
58252;SDS011;44050;48.884;8.762;2023-09-07T00:01:36;1.60;;;1.08;;
58252;SDS011;44050;48.884;8.762;2023-09-07T00:06:38;1.67;;;0.90;;
58252;SDS011;44050;48.884;8.762;2023-09-07T00:09:09;0.60;;;0.60;;
58252;SDS011;44050;48.884;8.762;2023-09-07T00:11:41;1.83;;;1.10;;
58252;SDS011;44050;48.884;8.762;2023-09-07T00:16:42;1.27;;;1.17;;
58252;SDS011;44050;48.884;8.762;2023-09-07T00:21:44;0.73;;;0.70;;
58252;SDS011;44050;48.884;8.762;2023-09-07T00:26:46;1.42;;;1.30;;
58252;SDS011;44050;48.884;8.762;2023-09-07T00:31:48;0.70;;;0.70;;
58252;SDS011;44050;48.884;8.762;2023-09-07T00:36:49;1.45;;;1.13;;
58252;SDS011;44050;48.884;8.762;2023-09-07T00:39:20;4.15;;;1.00;;
58252;SDS011;44050;48.884;8.762;2023-09-07T00:44:21;0.93;;;0.83;;
58252;SDS011;44050;48.884;8.762;2023-09-07T00:49:23;1.70;;;0.60;;
58252;SDS011;44050;48.884;8.762;2023-09-07T00:51:54;4.38;;;0.80;;
58252;SDS011;44050;48.884;8.762;2023-09-07T00:56:56;1.65;;;0.88;;
58252;SDS011;44050;48.884;8.762;2023-09-07T01:01:57;1.07;;;0.67;;
58252;SDS011;44050;48.884;8.762;2023-09-07T01:07:02;0.70;;;0.70;;
58252;SDS011;44050;48.884;8.762;2023-09-07T01:09:34;0.60;;;0.60;;
58252;SDS011;44050;48.884;8.762;2023-09-07T01:12:06;1.70;;;1.17;;
58252;SDS011;44050;48.884;8.762;2023-09-07T01:14:41;0.90;;;0.90;;
58252;SDS011;44050;48.884;8.762;2023-09-07T01:19:44;0.98;;;0.93;;
58252;SDS011;44050;48.884;8.762;2023-09-07T01:22:16;1.25;;;0.93;;
58252;SDS011;44050;48.884;8.762;2023-09-07T01:24:48;1.50;;;1.40;;
58252;SDS011;44050;48.884;8.762;2023-09-07T01:29:51;0.70;;;0.70;;
58252;SDS011;44050;48.884;8.762;2023-09-07T01:32:21;1.52;;;1.23;;
58252;SDS011;44050;48.884;8.762;2023-09-07T01:37:23;1.37;;;1.27;;
58252;SDS011;44050;48.884;8.762;2023-09-07T01:42:24;3.47;;;0.80;;
58252;SDS011;44050;48.884;8.762;2023-09-07T01:47:25;1.30;;;1.00;;
58252;SDS011;44050;48.884;8.762;2023-09-07T01:49:56;0.77;;;0.77;;
58252;SDS011;44050;48.884;8.762;2023-09-07T01:54:57;0.97;;;0.87;;
58252;SDS011;44050;48.884;8.762;2023-09-07T01:59:59;1.02;;;1.02;;
58252;SDS011;44050;48.884;8.762;2023-09-07T02:05:01;0.60;;;0.60;;
58252;SDS011;44050;48.884;8.762;2023-09-07T02:07:32;1.00;;;0.75;;
58252;SDS011;44050;48.884;8.762;2023-09-07T02:10:02;1.02;;;0.90;;
58252;SDS011;44050;48.884;8.762;2023-09-07T02:12:36;1.05;;;0.98;;
58252;SDS011;44050;48.884;8.762;2023-09-07T02:15:07;0.77;;;0.77;;
58252;SDS011;44050;48.884;8.762;2023-09-07T02:17:38;1.45;;;1.35;;
58252;SDS011;44050;48.884;8.762;2023-09-07T02:20:08;1.10;;;1.05;;
58252;SDS011;44050;48.884;8.762;2023-09-07T02:22:41;4.50;;;0.95;;
58252;SDS011;44050;48.884;8.762;2023-09-07T02:25:12;1.88;;;1.63;;
58252;SDS011;44050;48.884;8.762;2023-09-07T02:27:42;1.63;;;1.52;;
58252;SDS011;44050;48.884;8.762;2023-09-07T02:30:13;1.60;;;1.50;;
58252;SDS011;44050;48.884;8.762;2023-09-07T02:35:14;2.27;;;1.00;;
58252;SDS011;44050;48.884;8.762;2023-09-07T02:40:16;1.00;;;0.87;;
58252;SDS011;44050;48.884;8.762;2023-09-07T02:42:47;1.63;;;1.38;;
58252;SDS011;44050;48.884;8.762;2023-09-07T02:45:17;2.13;;;1.25;;
58252;SDS011;44050;48.884;8.762;2023-09-07T02:47:48;5.10;;;1.23;;
58252;SDS011;44050;48.884;8.762;2023-09-07T02:50:21;1.90;;;1.20;;
58252;SDS011;44050;48.884;8.762;2023-09-07T02:52:53;1.63;;;1.17;;
58252;SDS011;44050;48.884;8.762;2023-09-07T02:55:24;1.83;;;0.90;;
58252;SDS011;44050;48.884;8.762;2023-09-07T02:57:56;1.15;;;1.05;;
58252;SDS011;44050;48.884;8.762;2023-09-07T03:00:27;1.42;;;1.33;;
58252;SDS011;44050;48.884;8.762;2023-09-07T03:05:29;1.37;;;1.20;;
58252;SDS011;44050;48.884;8.762;2023-09-07T03:10:31;2.13;;;1.23;;
58252;SDS011;44050;48.884;8.762;2023-09-07T03:13:01;1.38;;;1.20;;
58252;SDS011;44050;48.884;8.762;2023-09-07T03:15:32;1.00;;;1.00;;
58252;SDS011;44050;48.884;8.762;2023-09-07T03:18:03;1.40;;;1.30;;
58252;SDS011;44050;48.884;8.762;2023-09-07T03:20:34;1.10;;;0.98;;
58252;SDS011;44050;48.884;8.762;2023-09-07T03:25:36;1.10;;;1.00;;
58252;SDS011;44050;48.884;8.762;2023-09-07T03:28:07;1.40;;;1.30;;
58252;SDS011;44050;48.884;8.762;2023-09-07T03:30:40;2.72;;;1.20;;
58252;SDS011;44050;48.884;8.762;2023-09-07T03:33:11;1.90;;;1.10;;
58252;SDS011;44050;48.884;8.762;2023-09-07T03:35:42;0.90;;;0.90;;
58252;SDS011;44050;48.884;8.762;2023-09-07T03:38:13;1.65;;;1.55;;
58252;SDS011;44050;48.884;8.762;2023-09-07T03:40:44;4.47;;;2.13;;
58252;SDS011;44050;48.884;8.762;2023-09-07T03:43:15;2.03;;;1.30;;
58252;SDS011;44050;48.884;8.762;2023-09-07T03:48:16;1.97;;;1.33;;
58252;SDS011;44050;48.884;8.762;2023-09-07T03:50:47;4.07;;;1.83;;
58252;SDS011;44050;48.884;8.762;2023-09-07T03:55:49;1.02;;;1.00;;
58252;SDS011;44050;48.884;8.762;2023-09-07T03:58:22;1.42;;;1.35;;
58252;SDS011;44050;48.884;8.762;2023-09-07T04:00:52;1.13;;;1.02;;
58252;SDS011;44050;48.884;8.762;2023-09-07T04:05:54;1.07;;;1.00;;
58252;SDS011;44050;48.884;8.762;2023-09-07T04:08:25;1.38;;;1.27;;
58252;SDS011;44050;48.884;8.762;2023-09-07T04:10:55;1.75;;;1.65;;
58252;SDS011;44050;48.884;8.762;2023-09-07T04:15:57;1.80;;;1.70;;
58252;SDS011;44050;48.884;8.762;2023-09-07T04:21:07;1.03;;;0.97;;
58252;SDS011;44050;48.884;8.762;2023-09-07T04:26:11;1.73;;;1.38;;
58252;SDS011;44050;48.884;8.762;2023-09-07T04:28:42;2.72;;;0.75;;
58252;SDS011;44050;48.884;8.762;2023-09-07T04:31:13;1.33;;;1.20;;
58252;SDS011;44050;48.884;8.762;2023-09-07T04:33:44;1.65;;;1.55;;
58252;SDS011;44050;48.884;8.762;2023-09-07T04:38:49;1.75;;;1.65;;
58252;SDS011;44050;48.884;8.762;2023-09-07T04:43:51;1.10;;;1.02;;
58252;SDS011;44050;48.884;8.762;2023-09-07T04:46:22;0.93;;;0.93;;
58252;SDS011;44050;48.884;8.762;2023-09-07T04:48:53;1.45;;;1.35;;
58252;SDS011;44050;48.884;8.762;2023-09-07T04:51:24;1.70;;;1.60;;
58252;SDS011;44050;48.884;8.762;2023-09-07T04:53:56;1.13;;;1.10;;
58252;SDS011;44050;48.884;8.762;2023-09-07T04:56:27;1.75;;;1.48;;
58252;SDS011;44050;48.884;8.762;2023-09-07T04:59:00;1.42;;;1.33;;
58252;SDS011;44050;48.884;8.762;2023-09-07T05:01:31;2.97;;;1.98;;
58252;SDS011;44050;48.884;8.762;2023-09-07T05:04:02;1.60;;;1.45;;
58252;SDS011;44050;48.884;8.762;2023-09-07T05:06:34;1.33;;;1.33;;
58252;SDS011;44050;48.884;8.762;2023-09-07T05:09:09;5.28;;;1.85;;
58252;SDS011;44050;48.884;8.762;2023-09-07T05:14:10;0.83;;;0.83;;
58252;SDS011;44050;48.884;8.762;2023-09-07T05:19:12;2.23;;;1.30;;
58252;SDS011;44050;48.884;8.762;2023-09-07T05:24:13;2.08;;;1.00;;
58252;SDS011;44050;48.884;8.762;2023-09-07T05:26:46;2.00;;;1.63;;
58252;SDS011;44050;48.884;8.762;2023-09-07T05:31:47;1.40;;;1.30;;
58252;SDS011;44050;48.884;8.762;2023-09-07T05:39:19;1.42;;;1.27;;
58252;SDS011;44050;48.884;8.762;2023-09-07T05:41:51;1.63;;;1.52;;
58252;SDS011;44050;48.884;8.762;2023-09-07T05:46:52;1.60;;;1.50;;
58252;SDS011;44050;48.884;8.762;2023-09-07T05:49:24;6.10;;;2.50;;
58252;SDS011;44050;48.884;8.762;2023-09-07T05:54:26;3.40;;;1.40;;
58252;SDS011;44050;48.884;8.762;2023-09-07T05:59:27;1.52;;;1.33;;
58252;SDS011;44050;48.884;8.762;2023-09-07T06:04:29;1.87;;;1.27;;
58252;SDS011;44050;48.884;8.762;2023-09-07T06:07:01;1.88;;;1.55;;
58252;SDS011;44050;48.884;8.762;2023-09-07T06:12:02;2.53;;;1.50;;
58252;SDS011;44050;48.884;8.762;2023-09-07T06:14:34;2.08;;;1.98;;
58252;SDS011;44050;48.884;8.762;2023-09-07T06:19:35;3.63;;;1.97;;
58252;SDS011;44050;48.884;8.762;2023-09-07T06:24:37;1.30;;;1.30;;
58252;SDS011;44050;48.884;8.762;2023-09-07T06:29:38;2.83;;;1.90;;
58252;SDS011;44050;48.884;8.762;2023-09-07T06:34:39;2.67;;;1.50;;
58252;SDS011;44050;48.884;8.762;2023-09-07T06:37:11;2.22;;;2.05;;
58252;SDS011;44050;48.884;8.762;2023-09-07T06:39:43;1.98;;;1.67;;
58252;SDS011;44050;48.884;8.762;2023-09-07T06:42:14;4.03;;;1.85;;
58252;SDS011;44050;48.884;8.762;2023-09-07T06:44:53;2.33;;;2.13;;
58252;SDS011;44050;48.884;8.762;2023-09-07T06:49:54;5.00;;;1.93;;
58252;SDS011;44050;48.884;8.762;2023-09-07T06:54:55;6.87;;;2.00;;
58252;SDS011;44050;48.884;8.762;2023-09-07T06:57:27;2.38;;;2.22;;
58252;SDS011;44050;48.884;8.762;2023-09-07T06:59:58;1.80;;;1.70;;
58252;SDS011;44050;48.884;8.762;2023-09-07T07:05:00;3.60;;;2.47;;
58252;SDS011;44050;48.884;8.762;2023-09-07T07:07:33;2.03;;;1.83;;
58252;SDS011;44050;48.884;8.762;2023-09-07T07:10:06;2.28;;;1.63;;
58252;SDS011;44050;48.884;8.762;2023-09-07T07:12:37;1.92;;;1.77;;
58252;SDS011;44050;48.884;8.762;2023-09-07T07:15:09;2.47;;;2.28;;
58252;SDS011;44050;48.884;8.762;2023-09-07T07:17:42;2.78;;;1.73;;
58252;SDS011;44050;48.884;8.762;2023-09-07T07:22:44;1.67;;;1.58;;
58252;SDS011;44050;48.884;8.762;2023-09-07T07:25:18;2.05;;;1.92;;
58252;SDS011;44050;48.884;8.762;2023-09-07T07:30:19;2.20;;;2.00;;
58252;SDS011;44050;48.884;8.762;2023-09-07T07:32:50;2.58;;;2.38;;
58252;SDS011;44050;48.884;8.762;2023-09-07T07:35:21;2.28;;;2.10;;
58252;SDS011;44050;48.884;8.762;2023-09-07T07:37:52;3.03;;;2.15;;
58252;SDS011;44050;48.884;8.762;2023-09-07T07:40:24;1.85;;;1.73;;
58252;SDS011;44050;48.884;8.762;2023-09-07T07:42:55;4.82;;;2.92;;
58252;SDS011;44050;48.884;8.762;2023-09-07T07:45:26;2.13;;;2.03;;
58252;SDS011;44050;48.884;8.762;2023-09-07T07:47:58;6.50;;;2.72;;
58252;SDS011;44050;48.884;8.762;2023-09-07T07:50:28;3.88;;;1.90;;
58252;SDS011;44050;48.884;8.762;2023-09-07T07:52:59;2.17;;;2.03;;
58252;SDS011;44050;48.884;8.762;2023-09-07T07:55:30;2.25;;;1.73;;
58252;SDS011;44050;48.884;8.762;2023-09-07T07:58:01;5.07;;;1.83;;
58252;SDS011;44050;48.884;8.762;2023-09-07T08:00:32;4.30;;;2.83;;
58252;SDS011;44050;48.884;8.762;2023-09-07T08:03:03;2.75;;;2.55;;
58252;SDS011;44050;48.884;8.762;2023-09-07T08:05:36;5.68;;;2.13;;
58252;SDS011;44050;48.884;8.762;2023-09-07T08:08:10;3.22;;;2.72;;
58252;SDS011;44050;48.884;8.762;2023-09-07T08:10:41;2.70;;;2.45;;
58252;SDS011;44050;48.884;8.762;2023-09-07T08:13:13;2.40;;;2.20;;
58252;SDS011;44050;48.884;8.762;2023-09-07T08:15:44;3.95;;;2.47;;
58252;SDS011;44050;48.884;8.762;2023-09-07T08:18:17;1.95;;;1.85;;
58252;SDS011;44050;48.884;8.762;2023-09-07T08:20:48;2.08;;;1.98;;
58252;SDS011;44050;48.884;8.762;2023-09-07T08:23:19;2.40;;;2.20;;
58252;SDS011;44050;48.884;8.762;2023-09-07T08:25:51;1.33;;;1.25;;
58252;SDS011;44050;48.884;8.762;2023-09-07T08:28:21;2.15;;;2.05;;
58252;SDS011;44050;48.884;8.762;2023-09-07T08:30:52;2.55;;;2.35;;
58252;SDS011;44050;48.884;8.762;2023-09-07T08:33:23;2.42;;;1.92;;
58252;SDS011;44050;48.884;8.762;2023-09-07T08:35:59;1.85;;;1.75;;
58252;SDS011;44050;48.884;8.762;2023-09-07T08:38:31;2.08;;;1.98;;
58252;SDS011;44050;48.884;8.762;2023-09-07T08:41:02;2.45;;;2.35;;
58252;SDS011;44050;48.884;8.762;2023-09-07T08:43:44;2.70;;;2.50;;
58252;SDS011;44050;48.884;8.762;2023-09-07T08:46:20;2.13;;;1.98;;
58252;SDS011;44050;48.884;8.762;2023-09-07T08:48:51;2.22;;;2.13;;
58252;SDS011;44050;48.884;8.762;2023-09-07T08:51:23;2.00;;;1.90;;
58252;SDS011;44050;48.884;8.762;2023-09-07T08:53:54;1.48;;;1.38;;
58252;SDS011;44050;48.884;8.762;2023-09-07T08:56:26;2.70;;;2.50;;
58252;SDS011;44050;48.884;8.762;2023-09-07T08:58:58;2.10;;;1.90;;
58252;SDS011;44050;48.884;8.762;2023-09-07T09:01:29;2.50;;;2.10;;
58252;SDS011;44050;48.884;8.762;2023-09-07T09:04:02;5.28;;;2.42;;
58252;SDS011;44050;48.884;8.762;2023-09-07T09:06:32;2.42;;;2.25;;
58252;SDS011;44050;48.884;8.762;2023-09-07T09:09:03;4.57;;;2.53;;
58252;SDS011;44050;48.884;8.762;2023-09-07T09:11:37;2.38;;;2.17;;
58252;SDS011;44050;48.884;8.762;2023-09-07T09:14:07;3.95;;;1.98;;
58252;SDS011;44050;48.884;8.762;2023-09-07T09:16:38;3.70;;;2.60;;
58252;SDS011;44050;48.884;8.762;2023-09-07T09:19:09;8.95;;;2.40;;
58252;SDS011;44050;48.884;8.762;2023-09-07T09:21:39;2.20;;;2.00;;
58252;SDS011;44050;48.884;8.762;2023-09-07T09:24:11;2.72;;;2.53;;
58252;SDS011;44050;48.884;8.762;2023-09-07T09:26:41;1.85;;;1.70;;
58252;SDS011;44050;48.884;8.762;2023-09-07T09:29:12;1.95;;;1.85;;
58252;SDS011;44050;48.884;8.762;2023-09-07T09:31:45;2.40;;;2.17;;
58252;SDS011;44050;48.884;8.762;2023-09-07T09:34:16;2.17;;;1.98;;
58252;SDS011;44050;48.884;8.762;2023-09-07T09:36:46;1.83;;;1.73;;
58252;SDS011;44050;48.884;8.762;2023-09-07T09:39:23;2.55;;;2.38;;
58252;SDS011;44050;48.884;8.762;2023-09-07T09:41:54;3.17;;;2.50;;
58252;SDS011;44050;48.884;8.762;2023-09-07T09:44:26;2.83;;;1.88;;
58252;SDS011;44050;48.884;8.762;2023-09-07T09:46:59;2.78;;;2.28;;
58252;SDS011;44050;48.884;8.762;2023-09-07T09:49:30;2.42;;;2.22;;
58252;SDS011;44050;48.884;8.762;2023-09-07T09:52:01;1.83;;;1.70;;
58252;SDS011;44050;48.884;8.762;2023-09-07T09:54:33;6.38;;;2.30;;
58252;SDS011;44050;48.884;8.762;2023-09-07T09:57:05;2.72;;;1.67;;
58252;SDS011;44050;48.884;8.762;2023-09-07T09:59:36;5.25;;;2.05;;
58252;SDS011;44050;48.884;8.762;2023-09-07T10:02:07;2.47;;;2.28;;
58252;SDS011;44050;48.884;8.762;2023-09-07T10:04:38;2.20;;;2.05;;
58252;SDS011;44050;48.884;8.762;2023-09-07T10:07:09;1.98;;;1.85;;
58252;SDS011;44050;48.884;8.762;2023-09-07T10:09:40;1.75;;;1.65;;
58252;SDS011;44050;48.884;8.762;2023-09-07T10:12:11;2.00;;;1.90;;
58252;SDS011;44050;48.884;8.762;2023-09-07T10:14:42;2.70;;;2.50;;
58252;SDS011;44050;48.884;8.762;2023-09-07T10:17:21;2.58;;;2.28;;
58252;SDS011;44050;48.884;8.762;2023-09-07T10:20:01;2.78;;;2.55;;
58252;SDS011;44050;48.884;8.762;2023-09-07T10:22:35;2.05;;;1.95;;
58252;SDS011;44050;48.884;8.762;2023-09-07T10:25:06;5.05;;;2.75;;
58252;SDS011;44050;48.884;8.762;2023-09-07T10:27:48;3.30;;;2.55;;
58252;SDS011;44050;48.884;8.762;2023-09-07T10:30:19;2.20;;;2.10;;
58252;SDS011;44050;48.884;8.762;2023-09-07T10:32:53;2.42;;;2.22;;
58252;SDS011;44050;48.884;8.762;2023-09-07T10:35:23;2.50;;;2.30;;
58252;SDS011;44050;48.884;8.762;2023-09-07T10:37:56;3.33;;;2.55;;
58252;SDS011;44050;48.884;8.762;2023-09-07T10:40:29;2.70;;;2.53;;
58252;SDS011;44050;48.884;8.762;2023-09-07T10:43:01;2.67;;;2.47;;
58252;SDS011;44050;48.884;8.762;2023-09-07T10:45:34;2.70;;;2.50;;
58252;SDS011;44050;48.884;8.762;2023-09-07T10:48:05;2.85;;;2.65;;
58252;SDS011;44050;48.884;8.762;2023-09-07T10:50:45;6.93;;;2.85;;
58252;SDS011;44050;48.884;8.762;2023-09-07T10:53:23;3.30;;;3.10;;
58252;SDS011;44050;48.884;8.762;2023-09-07T10:55:56;2.28;;;2.17;;
58252;SDS011;44050;48.884;8.762;2023-09-07T10:58:27;2.90;;;2.70;;
58252;SDS011;44050;48.884;8.762;2023-09-07T11:00:59;2.95;;;2.53;;
58252;SDS011;44050;48.884;8.762;2023-09-07T11:03:30;3.45;;;3.15;;
58252;SDS011;44050;48.884;8.762;2023-09-07T11:06:05;2.50;;;2.30;;
58252;SDS011;44050;48.884;8.762;2023-09-07T11:08:37;2.45;;;2.20;;
58252;SDS011;44050;48.884;8.762;2023-09-07T11:11:08;2.50;;;2.30;;
58252;SDS011;44050;48.884;8.762;2023-09-07T11:13:39;2.97;;;2.78;;
58252;SDS011;44050;48.884;8.762;2023-09-07T11:16:09;4.63;;;1.88;;
58252;SDS011;44050;48.884;8.762;2023-09-07T11:18:40;4.20;;;2.55;;
58252;SDS011;44050;48.884;8.762;2023-09-07T11:21:11;3.63;;;3.22;;
58252;SDS011;44050;48.884;8.762;2023-09-07T11:23:42;2.78;;;2.58;;
58252;SDS011;44050;48.884;8.762;2023-09-07T11:26:14;2.67;;;2.38;;
58252;SDS011;44050;48.884;8.762;2023-09-07T11:28:47;2.60;;;2.47;;
58252;SDS011;44050;48.884;8.762;2023-09-07T11:31:18;2.88;;;2.55;;
58252;SDS011;44050;48.884;8.762;2023-09-07T11:33:50;5.43;;;2.42;;
58252;SDS011;44050;48.884;8.762;2023-09-07T11:36:21;4.32;;;3.17;;
58252;SDS011;44050;48.884;8.762;2023-09-07T11:38:54;2.53;;;2.35;;
58252;SDS011;44050;48.884;8.762;2023-09-07T11:41:25;3.00;;;2.80;;
58252;SDS011;44050;48.884;8.762;2023-09-07T11:43:56;2.65;;;2.45;;
58252;SDS011;44050;48.884;8.762;2023-09-07T11:46:27;2.70;;;1.92;;
58252;SDS011;44050;48.884;8.762;2023-09-07T11:48:57;2.97;;;2.08;;
58252;SDS011;44050;48.884;8.762;2023-09-07T11:51:29;3.90;;;2.22;;
58252;SDS011;44050;48.884;8.762;2023-09-07T11:54:03;3.38;;;3.08;;
58252;SDS011;44050;48.884;8.762;2023-09-07T11:56:33;3.28;;;2.45;;
58252;SDS011;44050;48.884;8.762;2023-09-07T11:59:09;6.47;;;2.75;;
58252;SDS011;44050;48.884;8.762;2023-09-07T12:01:40;3.33;;;2.60;;
58252;SDS011;44050;48.884;8.762;2023-09-07T12:04:11;3.13;;;2.40;;
58252;SDS011;44050;48.884;8.762;2023-09-07T12:06:41;3.33;;;2.70;;
58252;SDS011;44050;48.884;8.762;2023-09-07T12:09:12;2.88;;;2.40;;
58252;SDS011;44050;48.884;8.762;2023-09-07T12:11:45;4.03;;;2.08;;
58252;SDS011;44050;48.884;8.762;2023-09-07T12:14:16;2.83;;;2.42;;
58252;SDS011;44050;48.884;8.762;2023-09-07T12:16:46;2.17;;;1.80;;
58252;SDS011;44050;48.884;8.762;2023-09-07T12:19:17;2.78;;;2.58;;
58252;SDS011;44050;48.884;8.762;2023-09-07T12:21:48;3.42;;;2.17;;
58252;SDS011;44050;48.884;8.762;2023-09-07T12:24:19;3.10;;;2.90;;
58252;SDS011;44050;48.884;8.762;2023-09-07T12:26:49;2.63;;;2.42;;
58252;SDS011;44050;48.884;8.762;2023-09-07T12:29:20;2.10;;;1.90;;
58252;SDS011;44050;48.884;8.762;2023-09-07T12:31:51;3.35;;;2.70;;
58252;SDS011;44050;48.884;8.762;2023-09-07T12:34:21;3.17;;;2.25;;
58252;SDS011;44050;48.884;8.762;2023-09-07T12:36:52;3.53;;;2.72;;
58252;SDS011;44050;48.884;8.762;2023-09-07T12:39:23;2.70;;;2.60;;
58252;SDS011;44050;48.884;8.762;2023-09-07T12:41:53;3.15;;;2.95;;
58252;SDS011;44050;48.884;8.762;2023-09-07T12:44:24;3.13;;;2.50;;
58252;SDS011;44050;48.884;8.762;2023-09-07T12:46:55;2.75;;;2.53;;
58252;SDS011;44050;48.884;8.762;2023-09-07T12:49:26;4.03;;;2.65;;
58252;SDS011;44050;48.884;8.762;2023-09-07T12:51:57;3.40;;;3.10;;
58252;SDS011;44050;48.884;8.762;2023-09-07T12:54:27;3.42;;;2.67;;
58252;SDS011;44050;48.884;8.762;2023-09-07T12:56:58;3.13;;;2.83;;
58252;SDS011;44050;48.884;8.762;2023-09-07T12:59:29;3.20;;;2.22;;
58252;SDS011;44050;48.884;8.762;2023-09-07T13:02:00;3.72;;;2.40;;
58252;SDS011;44050;48.884;8.762;2023-09-07T13:04:31;3.38;;;2.17;;
58252;SDS011;44050;48.884;8.762;2023-09-07T13:07:01;2.95;;;2.65;;
58252;SDS011;44050;48.884;8.762;2023-09-07T13:09:32;2.35;;;2.25;;
58252;SDS011;44050;48.884;8.762;2023-09-07T13:12:03;6.00;;;2.35;;
58252;SDS011;44050;48.884;8.762;2023-09-07T13:14:34;4.22;;;3.17;;
58252;SDS011;44050;48.884;8.762;2023-09-07T13:17:05;1.90;;;1.80;;
58252;SDS011;44050;48.884;8.762;2023-09-07T13:19:36;2.30;;;2.20;;
58252;SDS011;44050;48.884;8.762;2023-09-07T13:22:09;4.03;;;2.90;;
58252;SDS011;44050;48.884;8.762;2023-09-07T13:24:40;5.47;;;2.92;;
58252;SDS011;44050;48.884;8.762;2023-09-07T13:27:10;2.42;;;2.28;;
58252;SDS011;44050;48.884;8.762;2023-09-07T13:29:41;2.22;;;2.08;;
58252;SDS011;44050;48.884;8.762;2023-09-07T13:32:12;6.38;;;2.45;;
58252;SDS011;44050;48.884;8.762;2023-09-07T13:34:43;2.80;;;2.60;;
58252;SDS011;44050;48.884;8.762;2023-09-07T13:37:13;2.60;;;2.15;;
58252;SDS011;44050;48.884;8.762;2023-09-07T13:39:44;3.97;;;2.45;;
58252;SDS011;44050;48.884;8.762;2023-09-07T13:42:15;2.60;;;2.40;;
58252;SDS011;44050;48.884;8.762;2023-09-07T13:44:46;2.15;;;1.95;;
58252;SDS011;44050;48.884;8.762;2023-09-07T13:47:17;2.67;;;2.47;;
58252;SDS011;44050;48.884;8.762;2023-09-07T13:49:48;2.10;;;2.00;;
58252;SDS011;44050;48.884;8.762;2023-09-07T13:52:19;4.28;;;2.25;;
58252;SDS011;44050;48.884;8.762;2023-09-07T13:54:53;2.03;;;1.92;;
58252;SDS011;44050;48.884;8.762;2023-09-07T13:57:24;3.00;;;1.75;;
58252;SDS011;44050;48.884;8.762;2023-09-07T13:59:58;2.35;;;2.17;;
58252;SDS011;44050;48.884;8.762;2023-09-07T14:02:35;2.65;;;2.45;;
58252;SDS011;44050;48.884;8.762;2023-09-07T14:05:09;3.15;;;1.85;;
58252;SDS011;44050;48.884;8.762;2023-09-07T14:08:00;1.75;;;1.65;;
58252;SDS011;44050;48.884;8.762;2023-09-07T14:10:31;2.13;;;1.92;;
58252;SDS011;44050;48.884;8.762;2023-09-07T14:13:02;2.55;;;2.30;;
58252;SDS011;44050;48.884;8.762;2023-09-07T14:15:32;2.10;;;2.00;;
58252;SDS011;44050;48.884;8.762;2023-09-07T14:18:03;2.00;;;1.90;;
58252;SDS011;44050;48.884;8.762;2023-09-07T14:20:39;2.00;;;1.90;;
58252;SDS011;44050;48.884;8.762;2023-09-07T14:23:16;1.67;;;1.58;;
58252;SDS011;44050;48.884;8.762;2023-09-07T14:25:47;2.08;;;1.98;;
58252;SDS011;44050;48.884;8.762;2023-09-07T14:28:18;2.50;;;2.35;;
58252;SDS011;44050;48.884;8.762;2023-09-07T14:30:49;1.98;;;1.77;;
58252;SDS011;44050;48.884;8.762;2023-09-07T14:33:20;3.25;;;2.42;;
58252;SDS011;44050;48.884;8.762;2023-09-07T14:35:51;2.17;;;2.08;;
58252;SDS011;44050;48.884;8.762;2023-09-07T14:38:24;2.85;;;2.65;;
58252;SDS011;44050;48.884;8.762;2023-09-07T14:40:57;1.83;;;1.73;;
58252;SDS011;44050;48.884;8.762;2023-09-07T14:43:28;1.80;;;1.70;;
58252;SDS011;44050;48.884;8.762;2023-09-07T14:45:59;2.72;;;2.40;;
58252;SDS011;44050;48.884;8.762;2023-09-07T14:48:30;2.53;;;2.33;;
58252;SDS011;44050;48.884;8.762;2023-09-07T14:51:00;2.40;;;2.17;;
58252;SDS011;44050;48.884;8.762;2023-09-07T14:53:31;1.70;;;1.60;;
58252;SDS011;44050;48.884;8.762;2023-09-07T14:56:02;1.88;;;1.75;;
58252;SDS011;44050;48.884;8.762;2023-09-07T14:58:33;4.20;;;2.25;;
58252;SDS011;44050;48.884;8.762;2023-09-07T15:01:04;3.20;;;2.45;;
58252;SDS011;44050;48.884;8.762;2023-09-07T15:03:35;3.55;;;2.17;;
58252;SDS011;44050;48.884;8.762;2023-09-07T15:06:11;3.65;;;2.85;;
58252;SDS011;44050;48.884;8.762;2023-09-07T15:08:43;1.83;;;1.73;;
58252;SDS011;44050;48.884;8.762;2023-09-07T15:11:13;2.15;;;1.63;;
58252;SDS011;44050;48.884;8.762;2023-09-07T15:13:44;2.60;;;2.40;;
58252;SDS011;44050;48.884;8.762;2023-09-07T15:16:16;4.68;;;2.35;;
58252;SDS011;44050;48.884;8.762;2023-09-07T15:18:50;3.53;;;2.03;;
58252;SDS011;44050;48.884;8.762;2023-09-07T15:21:27;1.80;;;1.70;;
58252;SDS011;44050;48.884;8.762;2023-09-07T15:23:58;2.33;;;1.73;;
58252;SDS011;44050;48.884;8.762;2023-09-07T15:26:39;3.75;;;1.98;;
58252;SDS011;44050;48.884;8.762;2023-09-07T15:29:15;2.25;;;2.15;;
58252;SDS011;44050;48.884;8.762;2023-09-07T15:31:48;4.07;;;1.67;;
58252;SDS011;44050;48.884;8.762;2023-09-07T15:34:21;2.40;;;2.20;;
58252;SDS011;44050;48.884;8.762;2023-09-07T15:36:51;1.88;;;1.77;;
58252;SDS011;44050;48.884;8.762;2023-09-07T15:39:25;2.35;;;2.15;;
58252;SDS011;44050;48.884;8.762;2023-09-07T15:41:56;1.50;;;1.40;;
58252;SDS011;44050;48.884;8.762;2023-09-07T15:44:31;1.85;;;1.75;;
58252;SDS011;44050;48.884;8.762;2023-09-07T15:47:02;2.97;;;2.78;;
58252;SDS011;44050;48.884;8.762;2023-09-07T15:49:33;1.73;;;1.63;;
58252;SDS011;44050;48.884;8.762;2023-09-07T15:52:05;3.42;;;1.77;;
58252;SDS011;44050;48.884;8.762;2023-09-07T15:54:36;2.50;;;2.13;;
58252;SDS011;44050;48.884;8.762;2023-09-07T15:57:09;1.92;;;1.83;;
58252;SDS011;44050;48.884;8.762;2023-09-07T15:59:41;2.65;;;1.98;;
58252;SDS011;44050;48.884;8.762;2023-09-07T16:02:11;2.58;;;1.90;;
58252;SDS011;44050;48.884;8.762;2023-09-07T16:04:43;2.67;;;2.47;;
58252;SDS011;44050;48.884;8.762;2023-09-07T16:07:14;1.83;;;1.65;;
58252;SDS011;44050;48.884;8.762;2023-09-07T16:09:45;1.98;;;1.88;;
58252;SDS011;44050;48.884;8.762;2023-09-07T16:12:17;4.13;;;2.95;;
58252;SDS011;44050;48.884;8.762;2023-09-07T16:14:48;1.92;;;1.83;;
58252;SDS011;44050;48.884;8.762;2023-09-07T16:17:19;1.83;;;1.73;;
58252;SDS011;44050;48.884;8.762;2023-09-07T16:19:50;2.50;;;2.20;;
58252;SDS011;44050;48.884;8.762;2023-09-07T16:22:22;2.33;;;2.13;;
58252;SDS011;44050;48.884;8.762;2023-09-07T16:24:53;2.30;;;2.15;;
58252;SDS011;44050;48.884;8.762;2023-09-07T16:27:24;2.88;;;2.15;;
58252;SDS011;44050;48.884;8.762;2023-09-07T16:29:55;2.00;;;1.90;;
58252;SDS011;44050;48.884;8.762;2023-09-07T16:32:26;3.08;;;1.80;;
58252;SDS011;44050;48.884;8.762;2023-09-07T16:34:57;1.83;;;1.70;;
58252;SDS011;44050;48.884;8.762;2023-09-07T16:37:34;2.20;;;1.80;;
58252;SDS011;44050;48.884;8.762;2023-09-07T16:40:05;2.15;;;2.05;;
58252;SDS011;44050;48.884;8.762;2023-09-07T16:42:37;3.83;;;1.58;;
58252;SDS011;44050;48.884;8.762;2023-09-07T16:45:13;2.50;;;2.30;;
58252;SDS011;44050;48.884;8.762;2023-09-07T16:47:47;2.25;;;2.05;;
58252;SDS011;44050;48.884;8.762;2023-09-07T16:50:18;4.05;;;2.33;;
58252;SDS011;44050;48.884;8.762;2023-09-07T16:52:49;2.17;;;2.08;;
58252;SDS011;44050;48.884;8.762;2023-09-07T16:55:20;1.83;;;1.73;;
58252;SDS011;44050;48.884;8.762;2023-09-07T16:57:50;2.28;;;2.10;;
58252;SDS011;44050;48.884;8.762;2023-09-07T17:00:24;3.35;;;2.20;;
58252;SDS011;44050;48.884;8.762;2023-09-07T17:02:56;1.70;;;1.60;;
58252;SDS011;44050;48.884;8.762;2023-09-07T17:05:27;2.65;;;1.88;;
58252;SDS011;44050;48.884;8.762;2023-09-07T17:07:58;2.30;;;2.15;;
58252;SDS011;44050;48.884;8.762;2023-09-07T17:10:29;1.70;;;1.60;;
58252;SDS011;44050;48.884;8.762;2023-09-07T17:13:01;3.40;;;2.22;;
58252;SDS011;44050;48.884;8.762;2023-09-07T17:15:31;3.88;;;2.20;;
58252;SDS011;44050;48.884;8.762;2023-09-07T17:18:02;1.83;;;1.73;;
58252;SDS011;44050;48.884;8.762;2023-09-07T17:20:36;2.40;;;1.55;;
58252;SDS011;44050;48.884;8.762;2023-09-07T17:23:07;1.67;;;1.58;;
58252;SDS011;44050;48.884;8.762;2023-09-07T17:25:40;1.90;;;1.80;;